sensor_id;sensor_type;location;lat;lon;timestamp;temperature;humidity
6018;DHT22;3037;51.068;13.780;2023-02-19T00:01:30;10.00;99.90
6018;DHT22;3037;51.068;13.780;2023-02-19T00:03:58;10.00;62.30
6018;DHT22;3037;51.068;13.780;2023-02-19T00:06:26;10.00;67.20
6018;DHT22;3037;51.068;13.780;2023-02-19T00:08:52;10.00;1.00
6018;DHT22;3037;51.068;13.780;2023-02-19T00:11:20;9.90;1.00
6018;DHT22;3037;51.068;13.780;2023-02-19T00:13:48;9.90;1.00
6018;DHT22;3037;51.068;13.780;2023-02-19T00:16:25;9.80;1.00
6018;DHT22;3037;51.068;13.780;2023-02-19T00:18:52;9.80;53.60
6018;DHT22;3037;51.068;13.780;2023-02-19T00:21:18;9.90;99.90
6018;DHT22;3037;51.068;13.780;2023-02-19T00:23:56;10.00;1.00
6018;DHT22;3037;51.068;13.780;2023-02-19T00:26:21;10.00;1.00
6018;DHT22;3037;51.068;13.780;2023-02-19T00:28:48;9.90;1.00
6018;DHT22;3037;51.068;13.780;2023-02-19T00:31:24;10.00;1.00
6018;DHT22;3037;51.068;13.780;2023-02-19T00:33:52;10.10;1.00
6018;DHT22;3037;51.068;13.780;2023-02-19T00:36:19;10.20;1.00
6018;DHT22;3037;51.068;13.780;2023-02-19T00:38:44;10.10;1.00
6018;DHT22;3037;51.068;13.780;2023-02-19T00:41:11;10.10;1.00
6018;DHT22;3037;51.068;13.780;2023-02-19T00:46:26;10.10;99.90
6018;DHT22;3037;51.068;13.780;2023-02-19T00:48:53;10.10;1.00
6018;DHT22;3037;51.068;13.780;2023-02-19T00:51:22;10.10;1.00
6018;DHT22;3037;51.068;13.780;2023-02-19T00:53:48;10.10;99.90
6018;DHT22;3037;51.068;13.780;2023-02-19T00:56:14;10.00;1.00
6018;DHT22;3037;51.068;13.780;2023-02-19T00:58:40;10.00;1.00
6018;DHT22;3037;51.068;13.780;2023-02-19T01:01:06;10.00;1.00
6018;DHT22;3037;51.068;13.780;2023-02-19T01:03:33;10.00;1.00
6018;DHT22;3037;51.068;13.780;2023-02-19T01:05:59;10.00;1.00
6018;DHT22;3037;51.068;13.780;2023-02-19T01:08:25;10.00;1.00
6018;DHT22;3037;51.068;13.780;2023-02-19T01:10:50;10.00;1.00
6018;DHT22;3037;51.068;13.780;2023-02-19T01:13:17;10.00;1.00
6018;DHT22;3037;51.068;13.780;2023-02-19T01:15:42;10.00;1.00
6018;DHT22;3037;51.068;13.780;2023-02-19T01:18:08;10.00;1.00
6018;DHT22;3037;51.068;13.780;2023-02-19T01:20:34;10.00;1.00
6018;DHT22;3037;51.068;13.780;2023-02-19T01:23:02;10.00;1.00
6018;DHT22;3037;51.068;13.780;2023-02-19T01:25:27;10.00;1.00
6018;DHT22;3037;51.068;13.780;2023-02-19T01:27:53;10.00;1.00
6018;DHT22;3037;51.068;13.780;2023-02-19T01:30:18;10.00;1.00
6018;DHT22;3037;51.068;13.780;2023-02-19T01:32:43;10.00;1.00
6018;DHT22;3037;51.068;13.780;2023-02-19T01:35:09;10.00;1.00
6018;DHT22;3037;51.068;13.780;2023-02-19T01:37:34;10.00;99.90
6018;DHT22;3037;51.068;13.780;2023-02-19T01:40:00;10.10;99.90
6018;DHT22;3037;51.068;13.780;2023-02-19T01:42:26;10.00;1.00
6018;DHT22;3037;51.068;13.780;2023-02-19T01:45:14;10.10;99.90
6018;DHT22;3037;51.068;13.780;2023-02-19T01:47:44;10.10;99.90
6018;DHT22;3037;51.068;13.780;2023-02-19T01:50:10;10.10;99.90
6018;DHT22;3037;51.068;13.780;2023-02-19T01:52:36;10.10;99.90
6018;DHT22;3037;51.068;13.780;2023-02-19T01:55:05;10.10;1.00
6018;DHT22;3037;51.068;13.780;2023-02-19T01:57:37;10.00;1.00
6018;DHT22;3037;51.068;13.780;2023-02-19T02:00:09;10.10;1.00
6018;DHT22;3037;51.068;13.780;2023-02-19T02:02:35;10.00;1.00
6018;DHT22;3037;51.068;13.780;2023-02-19T02:05:03;10.10;1.00
6018;DHT22;3037;51.068;13.780;2023-02-19T02:07:31;10.00;1.00
6018;DHT22;3037;51.068;13.780;2023-02-19T02:10:15;9.90;99.90
6018;DHT22;3037;51.068;13.780;2023-02-19T02:12:50;9.80;1.00
6018;DHT22;3037;51.068;13.780;2023-02-19T02:15:17;9.80;99.90
6018;DHT22;3037;51.068;13.780;2023-02-19T02:17:56;9.80;1.00
6018;DHT22;3037;51.068;13.780;2023-02-19T02:23:44;9.60;1.00
6018;DHT22;3037;51.068;13.780;2023-02-19T02:26:34;9.50;1.00
6018;DHT22;3037;51.068;13.780;2023-02-19T02:29:17;9.60;99.90
6018;DHT22;3037;51.068;13.780;2023-02-19T02:31:50;9.50;99.90
6018;DHT22;3037;51.068;13.780;2023-02-19T02:34:22;9.60;1.00
6018;DHT22;3037;51.068;13.780;2023-02-19T02:36:53;9.50;1.00
6018;DHT22;3037;51.068;13.780;2023-02-19T02:39:22;9.40;1.00
6018;DHT22;3037;51.068;13.780;2023-02-19T02:41:54;9.40;99.90
6018;DHT22;3037;51.068;13.780;2023-02-19T02:44:40;9.40;1.00
6018;DHT22;3037;51.068;13.780;2023-02-19T02:47:06;9.40;99.90
6018;DHT22;3037;51.068;13.780;2023-02-19T02:49:55;9.30;1.00
6018;DHT22;3037;51.068;13.780;2023-02-19T02:52:32;9.30;1.00
6018;DHT22;3037;51.068;13.780;2023-02-19T02:55:19;9.40;1.00
6018;DHT22;3037;51.068;13.780;2023-02-19T02:57:45;9.30;1.00
6018;DHT22;3037;51.068;13.780;2023-02-19T03:00:11;9.30;52.30
6018;DHT22;3037;51.068;13.780;2023-02-19T03:02:38;9.30;96.00
6018;DHT22;3037;51.068;13.780;2023-02-19T03:05:08;9.30;99.90
6018;DHT22;3037;51.068;13.780;2023-02-19T03:08:15;9.30;99.90
6018;DHT22;3037;51.068;13.780;2023-02-19T03:11:10;9.30;99.90
6018;DHT22;3037;51.068;13.780;2023-02-19T03:14:00;9.30;99.90
6018;DHT22;3037;51.068;13.780;2023-02-19T03:16:47;9.30;99.90
6018;DHT22;3037;51.068;13.780;2023-02-19T03:19:46;9.30;99.90
6018;DHT22;3037;51.068;13.780;2023-02-19T03:22:17;9.30;99.90
6018;DHT22;3037;51.068;13.780;2023-02-19T03:25:04;9.30;99.90
6018;DHT22;3037;51.068;13.780;2023-02-19T03:27:50;9.20;99.90
6018;DHT22;3037;51.068;13.780;2023-02-19T03:30:23;9.30;99.90
6018;DHT22;3037;51.068;13.780;2023-02-19T03:32:56;9.20;1.00
6018;DHT22;3037;51.068;13.780;2023-02-19T03:35:26;9.30;1.00
6018;DHT22;3037;51.068;13.780;2023-02-19T03:40:56;9.30;1.00
6018;DHT22;3037;51.068;13.780;2023-02-19T03:43:36;9.30;99.90
6018;DHT22;3037;51.068;13.780;2023-02-19T03:46:11;9.30;1.00
6018;DHT22;3037;51.068;13.780;2023-02-19T03:48:52;9.30;1.00
6018;DHT22;3037;51.068;13.780;2023-02-19T03:51:40;9.30;99.90
6018;DHT22;3037;51.068;13.780;2023-02-19T03:59:17;9.10;99.90
6018;DHT22;3037;51.068;13.780;2023-02-19T04:01:46;9.20;99.90
6018;DHT22;3037;51.068;13.780;2023-02-19T04:06:48;9.20;99.90
6018;DHT22;3037;51.068;13.780;2023-02-19T04:09:18;9.20;99.90
6018;DHT22;3037;51.068;13.780;2023-02-19T04:11:44;9.20;99.90
6018;DHT22;3037;51.068;13.780;2023-02-19T04:14:39;9.20;99.90
6018;DHT22;3037;51.068;13.780;2023-02-19T04:17:08;9.30;99.90
6018;DHT22;3037;51.068;13.780;2023-02-19T04:19:38;9.30;99.90
6018;DHT22;3037;51.068;13.780;2023-02-19T04:22:05;9.30;99.90
6018;DHT22;3037;51.068;13.780;2023-02-19T04:24:39;9.40;99.90
6018;DHT22;3037;51.068;13.780;2023-02-19T04:27:06;9.30;99.90
6018;DHT22;3037;51.068;13.780;2023-02-19T04:29:33;9.30;99.90
6018;DHT22;3037;51.068;13.780;2023-02-19T04:31:58;9.20;99.90
6018;DHT22;3037;51.068;13.780;2023-02-19T04:34:23;9.20;99.90
6018;DHT22;3037;51.068;13.780;2023-02-19T04:36:49;9.20;99.90
6018;DHT22;3037;51.068;13.780;2023-02-19T04:39:14;9.30;99.90
6018;DHT22;3037;51.068;13.780;2023-02-19T04:41:40;9.30;99.90
6018;DHT22;3037;51.068;13.780;2023-02-19T04:44:05;9.20;99.90
6018;DHT22;3037;51.068;13.780;2023-02-19T04:46:31;9.20;99.90
6018;DHT22;3037;51.068;13.780;2023-02-19T04:48:57;9.10;99.90
6018;DHT22;3037;51.068;13.780;2023-02-19T04:51:22;9.10;99.90
6018;DHT22;3037;51.068;13.780;2023-02-19T04:53:48;9.10;99.90
6018;DHT22;3037;51.068;13.780;2023-02-19T04:56:15;9.20;99.90
6018;DHT22;3037;51.068;13.780;2023-02-19T04:58:41;9.10;99.90
6018;DHT22;3037;51.068;13.780;2023-02-19T05:01:08;9.10;99.90
6018;DHT22;3037;51.068;13.780;2023-02-19T05:03:34;9.10;99.90
6018;DHT22;3037;51.068;13.780;2023-02-19T05:06:07;9.00;99.90
6018;DHT22;3037;51.068;13.780;2023-02-19T05:08:34;9.00;99.90
6018;DHT22;3037;51.068;13.780;2023-02-19T05:11:02;9.00;99.90
6018;DHT22;3037;51.068;13.780;2023-02-19T05:13:28;9.00;99.90
6018;DHT22;3037;51.068;13.780;2023-02-19T05:16:03;8.90;99.90
6018;DHT22;3037;51.068;13.780;2023-02-19T05:18:30;9.00;99.90
6018;DHT22;3037;51.068;13.780;2023-02-19T05:20:57;9.00;99.90
6018;DHT22;3037;51.068;13.780;2023-02-19T05:23:23;9.00;99.90
6018;DHT22;3037;51.068;13.780;2023-02-19T05:25:48;9.00;99.90
6018;DHT22;3037;51.068;13.780;2023-02-19T05:28:14;8.90;99.90
6018;DHT22;3037;51.068;13.780;2023-02-19T05:30:52;8.90;99.90
6018;DHT22;3037;51.068;13.780;2023-02-19T05:33:19;8.90;99.90
6018;DHT22;3037;51.068;13.780;2023-02-19T05:35:49;8.90;99.90
6018;DHT22;3037;51.068;13.780;2023-02-19T05:38:16;8.80;99.90
6018;DHT22;3037;51.068;13.780;2023-02-19T05:40:42;8.80;99.90
6018;DHT22;3037;51.068;13.780;2023-02-19T05:43:08;8.80;99.90
6018;DHT22;3037;51.068;13.780;2023-02-19T05:45:34;8.90;99.90
6018;DHT22;3037;51.068;13.780;2023-02-19T05:48:00;8.90;99.90
6018;DHT22;3037;51.068;13.780;2023-02-19T05:50:26;8.80;99.90
6018;DHT22;3037;51.068;13.780;2023-02-19T05:52:52;8.80;99.90
6018;DHT22;3037;51.068;13.780;2023-02-19T05:55:17;8.90;99.90
6018;DHT22;3037;51.068;13.780;2023-02-19T05:57:45;8.90;99.90
6018;DHT22;3037;51.068;13.780;2023-02-19T06:00:13;8.90;99.90
6018;DHT22;3037;51.068;13.780;2023-02-19T06:02:38;8.80;99.90
6018;DHT22;3037;51.068;13.780;2023-02-19T06:05:04;8.80;99.90
6018;DHT22;3037;51.068;13.780;2023-02-19T06:07:30;8.90;99.90
6018;DHT22;3037;51.068;13.780;2023-02-19T06:09:56;8.80;99.90
6018;DHT22;3037;51.068;13.780;2023-02-19T06:12:22;8.80;99.90
6018;DHT22;3037;51.068;13.780;2023-02-19T06:14:48;8.90;99.90
6018;DHT22;3037;51.068;13.780;2023-02-19T06:17:14;8.90;99.90
6018;DHT22;3037;51.068;13.780;2023-02-19T06:19:39;8.90;99.90
6018;DHT22;3037;51.068;13.780;2023-02-19T06:22:05;8.90;99.90
6018;DHT22;3037;51.068;13.780;2023-02-19T06:24:30;8.90;99.90
6018;DHT22;3037;51.068;13.780;2023-02-19T06:26:56;9.00;99.90
6018;DHT22;3037;51.068;13.780;2023-02-19T06:29:21;9.00;99.90
6018;DHT22;3037;51.068;13.780;2023-02-19T06:31:47;9.10;99.90
6018;DHT22;3037;51.068;13.780;2023-02-19T06:34:12;9.10;99.90
6018;DHT22;3037;51.068;13.780;2023-02-19T06:36:38;9.10;99.90
6018;DHT22;3037;51.068;13.780;2023-02-19T06:39:04;8.90;99.90
6018;DHT22;3037;51.068;13.780;2023-02-19T06:41:29;9.00;99.90
6018;DHT22;3037;51.068;13.780;2023-02-19T06:43:56;9.00;99.90
6018;DHT22;3037;51.068;13.780;2023-02-19T06:46:22;9.00;99.90
6018;DHT22;3037;51.068;13.780;2023-02-19T06:48:48;9.10;99.90
6018;DHT22;3037;51.068;13.780;2023-02-19T06:51:17;9.00;99.90
6018;DHT22;3037;51.068;13.780;2023-02-19T06:53:44;9.10;99.90
6018;DHT22;3037;51.068;13.780;2023-02-19T06:58:48;9.20;99.90
6018;DHT22;3037;51.068;13.780;2023-02-19T07:01:14;9.10;99.90
6018;DHT22;3037;51.068;13.780;2023-02-19T07:03:39;9.20;99.90
6018;DHT22;3037;51.068;13.780;2023-02-19T07:06:05;9.20;99.90
6018;DHT22;3037;51.068;13.780;2023-02-19T07:08:31;9.30;99.90
6018;DHT22;3037;51.068;13.780;2023-02-19T07:10:57;9.20;99.90
6018;DHT22;3037;51.068;13.780;2023-02-19T07:13:24;9.20;99.90
6018;DHT22;3037;51.068;13.780;2023-02-19T07:15:51;9.20;99.90
6018;DHT22;3037;51.068;13.780;2023-02-19T07:18:17;9.20;99.90
6018;DHT22;3037;51.068;13.780;2023-02-19T07:20:42;9.10;99.90
6018;DHT22;3037;51.068;13.780;2023-02-19T07:23:08;9.20;99.90
6018;DHT22;3037;51.068;13.780;2023-02-19T07:25:33;9.10;99.90
6018;DHT22;3037;51.068;13.780;2023-02-19T07:27:59;9.10;99.90
6018;DHT22;3037;51.068;13.780;2023-02-19T07:30:24;9.20;99.90
6018;DHT22;3037;51.068;13.780;2023-02-19T07:32:50;9.20;99.90
6018;DHT22;3037;51.068;13.780;2023-02-19T07:35:15;9.00;99.90
6018;DHT22;3037;51.068;13.780;2023-02-19T07:37:41;9.00;99.90
6018;DHT22;3037;51.068;13.780;2023-02-19T07:40:06;9.00;99.90
6018;DHT22;3037;51.068;13.780;2023-02-19T07:42:32;8.90;99.90
6018;DHT22;3037;51.068;13.780;2023-02-19T07:44:57;8.90;99.90
6018;DHT22;3037;51.068;13.780;2023-02-19T07:47:23;8.90;99.90
6018;DHT22;3037;51.068;13.780;2023-02-19T07:49:48;8.90;99.90
6018;DHT22;3037;51.068;13.780;2023-02-19T07:52:14;8.90;99.90
6018;DHT22;3037;51.068;13.780;2023-02-19T07:54:39;8.70;99.90
6018;DHT22;3037;51.068;13.780;2023-02-19T07:57:05;8.70;99.90
6018;DHT22;3037;51.068;13.780;2023-02-19T07:59:30;8.60;99.90
6018;DHT22;3037;51.068;13.780;2023-02-19T08:01:56;8.60;99.90
6018;DHT22;3037;51.068;13.780;2023-02-19T08:04:40;8.40;99.90
6018;DHT22;3037;51.068;13.780;2023-02-19T08:07:05;8.40;99.90
6018;DHT22;3037;51.068;13.780;2023-02-19T08:09:32;8.50;99.90
6018;DHT22;3037;51.068;13.780;2023-02-19T08:11:57;8.50;99.90
6018;DHT22;3037;51.068;13.780;2023-02-19T08:14:41;8.40;99.90
6018;DHT22;3037;51.068;13.780;2023-02-19T08:17:07;8.40;99.90
6018;DHT22;3037;51.068;13.780;2023-02-19T08:19:32;8.50;99.90
6018;DHT22;3037;51.068;13.780;2023-02-19T08:21:58;8.40;99.90
6018;DHT22;3037;51.068;13.780;2023-02-19T08:24:23;8.40;99.90
6018;DHT22;3037;51.068;13.780;2023-02-19T08:26:49;8.30;99.90
6018;DHT22;3037;51.068;13.780;2023-02-19T08:29:14;8.20;99.90
6018;DHT22;3037;51.068;13.780;2023-02-19T08:31:40;8.10;99.90
6018;DHT22;3037;51.068;13.780;2023-02-19T08:34:06;7.90;99.90
6018;DHT22;3037;51.068;13.780;2023-02-19T08:36:31;7.80;99.90
6018;DHT22;3037;51.068;13.780;2023-02-19T08:38:57;7.80;99.90
6018;DHT22;3037;51.068;13.780;2023-02-19T08:41:22;7.80;99.90
6018;DHT22;3037;51.068;13.780;2023-02-19T08:43:48;7.70;99.90
6018;DHT22;3037;51.068;13.780;2023-02-19T08:46:13;7.60;99.90
6018;DHT22;3037;51.068;13.780;2023-02-19T08:48:40;7.60;99.90
6018;DHT22;3037;51.068;13.780;2023-02-19T08:51:08;7.60;99.90
6018;DHT22;3037;51.068;13.780;2023-02-19T08:53:35;7.40;99.90
6018;DHT22;3037;51.068;13.780;2023-02-19T08:56:12;7.40;99.90
6018;DHT22;3037;51.068;13.780;2023-02-19T08:58:38;7.90;99.90
6018;DHT22;3037;51.068;13.780;2023-02-19T09:01:09;8.20;99.90
6018;DHT22;3037;51.068;13.780;2023-02-19T09:03:35;7.60;99.90
6018;DHT22;3037;51.068;13.780;2023-02-19T09:06:01;7.50;99.90
6018;DHT22;3037;51.068;13.780;2023-02-19T09:08:26;7.60;99.90
6018;DHT22;3037;51.068;13.780;2023-02-19T09:11:02;7.50;99.90
6018;DHT22;3037;51.068;13.780;2023-02-19T09:13:28;7.60;99.90
6018;DHT22;3037;51.068;13.780;2023-02-19T09:15:54;8.10;99.90
6018;DHT22;3037;51.068;13.780;2023-02-19T09:18:21;7.70;99.90
6018;DHT22;3037;51.068;13.780;2023-02-19T09:20:47;7.10;99.90
6018;DHT22;3037;51.068;13.780;2023-02-19T09:23:12;7.10;99.90
6018;DHT22;3037;51.068;13.780;2023-02-19T09:25:38;7.20;99.90
6018;DHT22;3037;51.068;13.780;2023-02-19T09:28:03;7.10;99.90
6018;DHT22;3037;51.068;13.780;2023-02-19T09:30:29;6.80;49.50
6018;DHT22;3037;51.068;13.780;2023-02-19T09:32:54;6.90;99.90
6018;DHT22;3037;51.068;13.780;2023-02-19T09:35:20;7.60;99.90
6018;DHT22;3037;51.068;13.780;2023-02-19T09:37:45;7.50;99.90
6018;DHT22;3037;51.068;13.780;2023-02-19T09:40:11;7.60;99.90
6018;DHT22;3037;51.068;13.780;2023-02-19T09:42:40;7.10;1.00
6018;DHT22;3037;51.068;13.780;2023-02-19T09:45:09;7.10;1.00
6018;DHT22;3037;51.068;13.780;2023-02-19T09:47:36;7.00;1.00
6018;DHT22;3037;51.068;13.780;2023-02-19T09:50:07;6.60;1.00
6018;DHT22;3037;51.068;13.780;2023-02-19T09:52:49;6.80;1.00
6018;DHT22;3037;51.068;13.780;2023-02-19T09:55:30;6.90;1.00
6018;DHT22;3037;51.068;13.780;2023-02-19T09:57:59;7.10;1.00
6018;DHT22;3037;51.068;13.780;2023-02-19T10:00:30;7.00;1.00
6018;DHT22;3037;51.068;13.780;2023-02-19T10:03:04;7.20;1.00
6018;DHT22;3037;51.068;13.780;2023-02-19T10:05:32;7.90;1.00
6018;DHT22;3037;51.068;13.780;2023-02-19T10:07:58;8.00;99.90
6018;DHT22;3037;51.068;13.780;2023-02-19T10:10:35;7.90;99.90
6018;DHT22;3037;51.068;13.780;2023-02-19T10:13:22;7.70;1.00
6018;DHT22;3037;51.068;13.780;2023-02-19T10:15:50;8.00;1.00
6018;DHT22;3037;51.068;13.780;2023-02-19T10:18:19;7.80;99.90
6018;DHT22;3037;51.068;13.780;2023-02-19T10:20:47;7.70;1.00
6018;DHT22;3037;51.068;13.780;2023-02-19T10:23:14;8.00;46.00
6018;DHT22;3037;51.068;13.780;2023-02-19T10:25:52;8.30;1.00
6018;DHT22;3037;51.068;13.780;2023-02-19T10:28:20;8.40;1.00
6018;DHT22;3037;51.068;13.780;2023-02-19T10:30:58;8.70;99.90
6018;DHT22;3037;51.068;13.780;2023-02-19T10:33:24;9.20;99.90
6018;DHT22;3037;51.068;13.780;2023-02-19T10:35:57;9.00;99.90
6018;DHT22;3037;51.068;13.780;2023-02-19T10:40:57;9.70;1.00
6018;DHT22;3037;51.068;13.780;2023-02-19T10:43:25;10.00;1.00
6018;DHT22;3037;51.068;13.780;2023-02-19T10:45:58;9.50;1.00
6018;DHT22;3037;51.068;13.780;2023-02-19T10:48:31;9.20;1.00
6018;DHT22;3037;51.068;13.780;2023-02-19T10:51:01;8.90;1.00
6018;DHT22;3037;51.068;13.780;2023-02-19T10:54:03;8.60;1.00
6018;DHT22;3037;51.068;13.780;2023-02-19T10:56:29;8.70;82.70
6018;DHT22;3037;51.068;13.780;2023-02-19T10:59:27;8.80;1.00
6018;DHT22;3037;51.068;13.780;2023-02-19T11:02:01;8.90;1.00
6018;DHT22;3037;51.068;13.780;2023-02-19T11:04:32;9.40;1.00
6018;DHT22;3037;51.068;13.780;2023-02-19T11:07:15;9.80;1.00
6018;DHT22;3037;51.068;13.780;2023-02-19T11:09:46;10.40;1.00
6018;DHT22;3037;51.068;13.780;2023-02-19T11:12:21;11.00;1.00
6018;DHT22;3037;51.068;13.780;2023-02-19T11:14:47;9.90;1.00
6018;DHT22;3037;51.068;13.780;2023-02-19T11:17:31;9.30;1.00
6018;DHT22;3037;51.068;13.780;2023-02-19T11:19:59;9.30;1.00
6018;DHT22;3037;51.068;13.780;2023-02-19T11:22:36;8.90;1.00
6018;DHT22;3037;51.068;13.780;2023-02-19T11:25:20;9.00;1.00
6018;DHT22;3037;51.068;13.780;2023-02-19T11:30:43;8.60;1.00
6018;DHT22;3037;51.068;13.780;2023-02-19T11:38:55;8.50;1.00
6018;DHT22;3037;51.068;13.780;2023-02-19T11:47:30;9.10;1.00
6018;DHT22;3037;51.068;13.780;2023-02-19T11:52:55;9.50;1.00
6018;DHT22;3037;51.068;13.780;2023-02-19T11:55:35;9.40;1.00
6018;DHT22;3037;51.068;13.780;2023-02-19T11:58:38;9.00;1.00
6018;DHT22;3037;51.068;13.780;2023-02-19T12:09:42;9.70;1.00
6018;DHT22;3037;51.068;13.780;2023-02-19T12:18:14;9.50;1.00
6018;DHT22;3037;51.068;13.780;2023-02-19T12:21:05;9.30;1.00
6018;DHT22;3037;51.068;13.780;2023-02-19T12:26:21;9.70;1.00
6018;DHT22;3037;51.068;13.780;2023-02-19T12:31:46;10.00;1.00
6018;DHT22;3037;51.068;13.780;2023-02-19T12:34:32;10.50;1.00
6018;DHT22;3037;51.068;13.780;2023-02-19T12:37:21;10.50;1.00
6018;DHT22;3037;51.068;13.780;2023-02-19T12:42:58;10.20;1.00
6018;DHT22;3037;51.068;13.780;2023-02-19T12:45:32;9.90;1.00
6018;DHT22;3037;51.068;13.780;2023-02-19T12:50:29;10.20;1.00
6018;DHT22;3037;51.068;13.780;2023-02-19T12:53:00;10.50;1.00
6018;DHT22;3037;51.068;13.780;2023-02-19T12:55:31;10.50;1.00
6018;DHT22;3037;51.068;13.780;2023-02-19T12:58:00;9.70;1.00
6018;DHT22;3037;51.068;13.780;2023-02-19T13:03:10;10.10;1.00
6018;DHT22;3037;51.068;13.780;2023-02-19T13:05:51;10.50;1.00
6018;DHT22;3037;51.068;13.780;2023-02-19T13:08:37;11.90;1.00
6018;DHT22;3037;51.068;13.780;2023-02-19T13:11:13;11.30;1.00
6018;DHT22;3037;51.068;13.780;2023-02-19T13:13:46;10.60;1.00
6018;DHT22;3037;51.068;13.780;2023-02-19T13:16:14;10.10;1.00
6018;DHT22;3037;51.068;13.780;2023-02-19T13:18:51;10.40;1.00
6018;DHT22;3037;51.068;13.780;2023-02-19T13:21:20;10.40;1.00
6018;DHT22;3037;51.068;13.780;2023-02-19T13:24:11;10.70;1.00
6018;DHT22;3037;51.068;13.780;2023-02-19T13:29:59;10.60;1.00
6018;DHT22;3037;51.068;13.780;2023-02-19T13:33:02;10.10;1.00
6018;DHT22;3037;51.068;13.780;2023-02-19T13:38:04;10.20;1.00
6018;DHT22;3037;51.068;13.780;2023-02-19T13:40:34;10.30;1.00
6018;DHT22;3037;51.068;13.780;2023-02-19T13:43:24;10.20;1.00
6018;DHT22;3037;51.068;13.780;2023-02-19T13:45:59;11.10;1.00
6018;DHT22;3037;51.068;13.780;2023-02-19T13:48:35;11.30;1.00
6018;DHT22;3037;51.068;13.780;2023-02-19T14:14:39;10.30;1.00
6018;DHT22;3037;51.068;13.780;2023-02-19T14:19:49;9.60;1.00
6018;DHT22;3037;51.068;13.780;2023-02-19T14:30:53;8.60;1.00
6018;DHT22;3037;51.068;13.780;2023-02-19T14:33:25;8.90;1.00
6018;DHT22;3037;51.068;13.780;2023-02-19T14:38:49;9.20;1.00
6018;DHT22;3037;51.068;13.780;2023-02-19T14:41:16;9.30;1.00
6018;DHT22;3037;51.068;13.780;2023-02-19T14:43:45;9.40;1.00
6018;DHT22;3037;51.068;13.780;2023-02-19T14:46:29;9.30;1.00
6018;DHT22;3037;51.068;13.780;2023-02-19T14:51:49;9.10;1.00
6018;DHT22;3037;51.068;13.780;2023-02-19T14:54:40;9.30;1.00
6018;DHT22;3037;51.068;13.780;2023-02-19T14:57:17;9.10;1.00
6018;DHT22;3037;51.068;13.780;2023-02-19T14:59:58;9.30;1.00
6018;DHT22;3037;51.068;13.780;2023-02-19T15:02:24;9.40;1.00
6018;DHT22;3037;51.068;13.780;2023-02-19T15:04:51;9.40;1.00
6018;DHT22;3037;51.068;13.780;2023-02-19T15:07:29;9.40;1.00
6018;DHT22;3037;51.068;13.780;2023-02-19T15:10:00;9.40;1.00
6018;DHT22;3037;51.068;13.780;2023-02-19T15:12:34;9.30;1.00
6018;DHT22;3037;51.068;13.780;2023-02-19T15:15:02;8.90;1.00
6018;DHT22;3037;51.068;13.780;2023-02-19T15:17:31;8.60;1.00
6018;DHT22;3037;51.068;13.780;2023-02-19T15:20:00;8.60;1.00
6018;DHT22;3037;51.068;13.780;2023-02-19T15:22:28;8.50;1.00
6018;DHT22;3037;51.068;13.780;2023-02-19T15:24:59;8.30;1.00
6018;DHT22;3037;51.068;13.780;2023-02-19T15:27:25;8.10;1.00
6018;DHT22;3037;51.068;13.780;2023-02-19T15:29:51;8.00;1.00
6018;DHT22;3037;51.068;13.780;2023-02-19T15:32:20;7.90;1.00
6018;DHT22;3037;51.068;13.780;2023-02-19T15:35:00;7.90;1.00
6018;DHT22;3037;51.068;13.780;2023-02-19T15:37:28;8.30;1.00
6018;DHT22;3037;51.068;13.780;2023-02-19T15:39:55;8.40;1.00
6018;DHT22;3037;51.068;13.780;2023-02-19T15:42:33;8.50;1.00
6018;DHT22;3037;51.068;13.780;2023-02-19T15:45:22;8.20;1.00
6018;DHT22;3037;51.068;13.780;2023-02-19T15:47:51;7.80;1.00
6018;DHT22;3037;51.068;13.780;2023-02-19T15:53:14;8.20;1.00
6018;DHT22;3037;51.068;13.780;2023-02-19T15:58:51;9.30;1.00
6018;DHT22;3037;51.068;13.780;2023-02-19T16:01:22;8.10;1.00
6018;DHT22;3037;51.068;13.780;2023-02-19T16:03:50;7.90;1.00
6018;DHT22;3037;51.068;13.780;2023-02-19T16:06:17;7.50;1.00
6018;DHT22;3037;51.068;13.780;2023-02-19T16:11:37;6.90;1.00
6018;DHT22;3037;51.068;13.780;2023-02-19T16:16:56;6.30;1.00
6018;DHT22;3037;51.068;13.780;2023-02-19T16:19:25;6.30;1.00
6018;DHT22;3037;51.068;13.780;2023-02-19T16:21:51;6.30;1.00
6018;DHT22;3037;51.068;13.780;2023-02-19T16:24:26;6.30;1.00
6018;DHT22;3037;51.068;13.780;2023-02-19T16:26:52;6.20;1.00
6018;DHT22;3037;51.068;13.780;2023-02-19T16:29:23;6.00;1.00
6018;DHT22;3037;51.068;13.780;2023-02-19T16:31:51;6.00;1.00
6018;DHT22;3037;51.068;13.780;2023-02-19T16:34:33;5.90;1.00
6018;DHT22;3037;51.068;13.780;2023-02-19T16:37:30;6.40;1.00
6018;DHT22;3037;51.068;13.780;2023-02-19T16:45:15;5.60;1.00
6018;DHT22;3037;51.068;13.780;2023-02-19T16:47:41;6.00;1.00
6018;DHT22;3037;51.068;13.780;2023-02-19T16:50:18;5.90;1.00
6018;DHT22;3037;51.068;13.780;2023-02-19T16:53:00;6.70;99.90
6018;DHT22;3037;51.068;13.780;2023-02-19T16:55:27;6.50;1.00
6018;DHT22;3037;51.068;13.780;2023-02-19T16:57:53;5.90;1.00
6018;DHT22;3037;51.068;13.780;2023-02-19T17:00:28;5.60;1.00
6018;DHT22;3037;51.068;13.780;2023-02-19T17:02:56;5.40;1.00
6018;DHT22;3037;51.068;13.780;2023-02-19T17:05:25;5.30;1.00
6018;DHT22;3037;51.068;13.780;2023-02-19T17:07:52;5.30;1.00
6018;DHT22;3037;51.068;13.780;2023-02-19T17:10:22;5.30;1.00
6018;DHT22;3037;51.068;13.780;2023-02-19T17:12:50;5.20;1.00
6018;DHT22;3037;51.068;13.780;2023-02-19T17:15:15;5.20;1.00
6018;DHT22;3037;51.068;13.780;2023-02-19T17:17:41;5.20;1.00
6018;DHT22;3037;51.068;13.780;2023-02-19T17:22:42;5.00;1.00
6018;DHT22;3037;51.068;13.780;2023-02-19T17:25:07;5.00;1.00
6018;DHT22;3037;51.068;13.780;2023-02-19T17:27:33;5.00;1.00
6018;DHT22;3037;51.068;13.780;2023-02-19T17:29:59;5.00;1.00
6018;DHT22;3037;51.068;13.780;2023-02-19T17:32:25;4.90;1.00
6018;DHT22;3037;51.068;13.780;2023-02-19T17:34:50;4.80;10.30
6018;DHT22;3037;51.068;13.780;2023-02-19T17:37:16;4.70;95.30
6018;DHT22;3037;51.068;13.780;2023-02-19T17:39:41;4.70;92.20
6018;DHT22;3037;51.068;13.780;2023-02-19T17:42:07;4.70;99.90
6018;DHT22;3037;51.068;13.780;2023-02-19T17:44:32;5.50;48.70
6018;DHT22;3037;51.068;13.780;2023-02-19T17:46:58;5.70;1.00
6018;DHT22;3037;51.068;13.780;2023-02-19T17:49:24;5.60;1.00
6018;DHT22;3037;51.068;13.780;2023-02-19T17:51:49;5.70;1.00
6018;DHT22;3037;51.068;13.780;2023-02-19T17:54:14;5.20;1.00
6018;DHT22;3037;51.068;13.780;2023-02-19T17:56:40;4.90;1.00
6018;DHT22;3037;51.068;13.780;2023-02-19T17:59:10;4.70;99.90
6018;DHT22;3037;51.068;13.780;2023-02-19T18:01:37;4.70;99.90
6018;DHT22;3037;51.068;13.780;2023-02-19T18:04:03;4.70;99.90
6018;DHT22;3037;51.068;13.780;2023-02-19T18:06:28;4.70;99.90
6018;DHT22;3037;51.068;13.780;2023-02-19T18:08:54;4.60;99.90
6018;DHT22;3037;51.068;13.780;2023-02-19T18:11:21;4.60;99.90
6018;DHT22;3037;51.068;13.780;2023-02-19T18:13:48;4.70;99.90
6018;DHT22;3037;51.068;13.780;2023-02-19T18:16:13;4.70;99.90
6018;DHT22;3037;51.068;13.780;2023-02-19T18:18:41;4.80;99.90
6018;DHT22;3037;51.068;13.780;2023-02-19T18:21:08;6.70;99.90
6018;DHT22;3037;51.068;13.780;2023-02-19T18:23:34;6.80;99.90
6018;DHT22;3037;51.068;13.780;2023-02-19T18:25:59;6.60;1.00
6018;DHT22;3037;51.068;13.780;2023-02-19T18:28:25;5.50;1.00
6018;DHT22;3037;51.068;13.780;2023-02-19T18:30:50;5.10;8.70
6018;DHT22;3037;51.068;13.780;2023-02-19T18:33:16;4.90;22.70
6018;DHT22;3037;51.068;13.780;2023-02-19T18:35:41;4.80;99.90
6018;DHT22;3037;51.068;13.780;2023-02-19T18:38:07;5.10;99.90
6018;DHT22;3037;51.068;13.780;2023-02-19T18:40:33;4.90;1.00